UPS707 LPPD-GCXO
Flight info
| Callsign | UPS707 |
|---|---|
| Flight time | N/A |
| Altitude | 27000 |
| Route | VSM H104 ETROX/N0409F370 DCT GALOZ DCT ORTIS |
| Aircraft | B738/M-SDE2E3FGHIRWXY/LB1 |
Departure
| Time | 2026-05-09 03:16 |
|---|---|
| Airport | João Paulo II Airport (LPPD) |
Arrival
| Time | N/A |
|---|---|
| Airport | Tenerife Norte-Ciudad de La Laguna Airport (GCXO) |
| Time | Latitude | Longitude | Altitude | Speed | Heading |
|---|---|---|---|---|---|
| 2026-05-09 02:43 | 37.74879 | -25.71115 | 271 ft | 0 kts | 22° |
| 2026-05-09 03:04 | 37.74875 | -25.71117 | 270 ft | 4 kts | 22° |
| 2026-05-09 03:05 | 37.74850 | -25.71130 | 271 ft | 4 kts | 31° |
| 2026-05-09 03:05 | 37.74836 | -25.71143 | 270 ft | 4 kts | 48° |
| 2026-05-09 03:05 | 37.74824 | -25.71170 | 270 ft | 4 kts | 92° |
| 2026-05-09 03:05 | 37.74825 | -25.71183 | 270 ft | 1 kts | 111° |
| 2026-05-09 03:08 | 37.74820 | -25.71167 | 271 ft | 4 kts | 111° |
| 2026-05-09 03:08 | 37.74805 | -25.71120 | 271 ft | 7 kts | 111° |
| 2026-05-09 03:09 | 37.74786 | -25.71057 | 271 ft | 8 kts | 111° |
| 2026-05-09 03:09 | 37.74764 | -25.70987 | 271 ft | 8 kts | 113° |
| 2026-05-09 03:09 | 37.74742 | -25.70919 | 271 ft | 8 kts | 111° |
| 2026-05-09 03:09 | 37.74721 | -25.70852 | 273 ft | 9 kts | 112° |
| 2026-05-09 03:10 | 37.74698 | -25.70781 | 271 ft | 9 kts | 111° |
| 2026-05-09 03:10 | 37.74677 | -25.70711 | 273 ft | 8 kts | 111° |
| 2026-05-09 03:10 | 37.74656 | -25.70644 | 271 ft | 9 kts | 111° |
| 2026-05-09 03:10 | 37.74633 | -25.70572 | 270 ft | 9 kts | 112° |
| 2026-05-09 03:11 | 37.74607 | -25.70500 | 270 ft | 10 kts | 118° |
| 2026-05-09 03:11 | 37.74550 | -25.70421 | 264 ft | 15 kts | 138° |
| 2026-05-09 03:11 | 37.74462 | -25.70322 | 255 ft | 19 kts | 143° |
| 2026-05-09 03:11 | 37.74352 | -25.70196 | 244 ft | 23 kts | 124° |
| 2026-05-09 03:12 | 37.74279 | -25.70014 | 236 ft | 23 kts | 112° |
| 2026-05-09 03:12 | 37.74216 | -25.69818 | 232 ft | 24 kts | 111° |
| 2026-05-09 03:12 | 37.74156 | -25.69628 | 225 ft | 23 kts | 111° |
| 2026-05-09 03:12 | 37.74092 | -25.69422 | 218 ft | 26 kts | 112° |
| 2026-05-09 03:13 | 37.73962 | -25.69012 | 203 ft | 25 kts | 112° |
| 2026-05-09 03:13 | 37.73891 | -25.68792 | 186 ft | 29 kts | 111° |
| 2026-05-09 03:13 | 37.73836 | -25.68622 | 183 ft | 18 kts | 120° |
| 2026-05-09 03:14 | 37.73745 | -25.68526 | 183 ft | 16 kts | 121° |
| 2026-05-09 03:14 | 37.73788 | -25.68465 | 183 ft | 11 kts | 326° |
| 2026-05-09 03:14 | 37.73810 | -25.68538 | 183 ft | 0 kts | 291° |
| 2026-05-09 03:15 | 37.73823 | -25.68578 | 183 ft | 28 kts | 291° |
| 2026-05-09 03:15 | 37.74008 | -25.69164 | 206 ft | 112 kts | 292° |
| 2026-05-09 03:16 | 37.74342 | -25.70326 | 481 ft | 157 kts | 290° |
| 2026-05-09 03:16 | 37.74706 | -25.71607 | 1545 ft | 151 kts | 304° |
| 2026-05-09 03:16 | 37.75196 | -25.72789 | 2626 ft | 152 kts | 305° |
| 2026-05-09 03:16 | 37.75701 | -25.74114 | 3099 ft | 181 kts | 300° |
| 2026-05-09 03:17 | 37.76002 | -25.75730 | 3593 ft | 209 kts | 274° |
| 2026-05-09 03:17 | 37.75625 | -25.77664 | 3859 ft | 236 kts | 265° |
| 2026-05-09 03:17 | 37.75425 | -25.79717 | 4429 ft | 236 kts | 274° |
| 2026-05-09 03:17 | 37.75426 | -25.81792 | 5062 ft | 237 kts | 279° |
| 2026-05-09 03:18 | 37.75520 | -25.83866 | 5728 ft | 237 kts | 281° |
| 2026-05-09 03:18 | 37.75581 | -25.85970 | 6318 ft | 246 kts | 269° |
| 2026-05-09 03:18 | 37.75055 | -25.88073 | 6949 ft | 256 kts | 251° |
| 2026-05-09 03:18 | 37.74089 | -25.89977 | 7542 ft | 271 kts | 235° |
| 2026-05-09 03:19 | 37.72546 | -25.91575 | 7951 ft | 297 kts | 213° |
| 2026-05-09 03:19 | 37.70564 | -25.92359 | 8736 ft | 309 kts | 188° |
| 2026-05-09 03:19 | 37.68380 | -25.92099 | 9643 ft | 319 kts | 163° |
| 2026-05-09 03:19 | 37.66451 | -25.90756 | 10326 ft | 328 kts | 137° |
| 2026-05-09 03:20 | 37.64963 | -25.88494 | 10593 ft | 347 kts | 116° |
| 2026-05-09 03:20 | 37.63823 | -25.85701 | 10834 ft | 369 kts | 113° |
| 2026-05-09 03:20 | 37.62666 | -25.82755 | 11347 ft | 380 kts | 112° |
| 2026-05-09 03:20 | 37.61493 | -25.79727 | 12008 ft | 387 kts | 112° |
| 2026-05-09 03:21 | 37.60304 | -25.76650 | 12711 ft | 394 kts | 112° |
| 2026-05-09 03:21 | 37.59090 | -25.73523 | 13401 ft | 400 kts | 112° |
| 2026-05-09 03:21 | 37.57853 | -25.70344 | 14053 ft | 407 kts | 113° |
| 2026-05-09 03:21 | 37.56310 | -25.67317 | 14630 ft | 417 kts | 132° |
| 2026-05-09 03:22 | 37.54070 | -25.65020 | 15442 ft | 415 kts | 147° |
| 2026-05-09 03:22 | 37.51659 | -25.62989 | 16128 ft | 420 kts | 148° |
| 2026-05-09 03:22 | 37.49191 | -25.60951 | 16666 ft | 428 kts | 148° |
| 2026-05-09 03:22 | 37.46690 | -25.58885 | 17309 ft | 432 kts | 148° |
| 2026-05-09 03:23 | 37.44173 | -25.56793 | 17984 ft | 436 kts | 148° |
| 2026-05-09 03:23 | 37.41638 | -25.54671 | 18597 ft | 440 kts | 148° |
| 2026-05-09 03:23 | 37.39086 | -25.52524 | 19166 ft | 443 kts | 148° |
| 2026-05-09 03:23 | 37.36522 | -25.50361 | 19762 ft | 444 kts | 148° |
| 2026-05-09 03:24 | 37.33947 | -25.48187 | 20362 ft | 447 kts | 149° |
| 2026-05-09 03:24 | 37.31356 | -25.46000 | 20883 ft | 451 kts | 149° |
| 2026-05-09 03:24 | 37.28735 | -25.43791 | 21391 ft | 455 kts | 149° |
| 2026-05-09 03:24 | 37.26095 | -25.41567 | 21923 ft | 459 kts | 149° |
| 2026-05-09 03:25 | 37.23435 | -25.39328 | 22444 ft | 462 kts | 149° |
| 2026-05-09 03:25 | 37.20750 | -25.37071 | 22957 ft | 466 kts | 149° |
| 2026-05-09 03:25 | 37.18046 | -25.34800 | 23390 ft | 471 kts | 150° |
| 2026-05-09 03:25 | 37.15310 | -25.32505 | 23795 ft | 476 kts | 150° |
| 2026-05-09 03:26 | 37.12549 | -25.30190 | 24199 ft | 478 kts | 150° |
| 2026-05-09 03:26 | 37.09783 | -25.27871 | 24648 ft | 480 kts | 150° |
| 2026-05-09 03:26 | 37.07006 | -25.25545 | 25076 ft | 482 kts | 150° |
| 2026-05-09 03:26 | 37.04209 | -25.23205 | 25461 ft | 485 kts | 150° |
| 2026-05-09 03:27 | 37.01398 | -25.20856 | 25821 ft | 487 kts | 151° |
| 2026-05-09 03:27 | 36.98569 | -25.18492 | 26228 ft | 490 kts | 150° |
| 2026-05-09 03:27 | 36.95944 | -25.15721 | 26597 ft | 501 kts | 134° |
| 2026-05-09 03:27 | 36.93924 | -25.12158 | 27016 ft | 505 kts | 122° |
| 2026-05-09 03:28 | 36.92140 | -25.08428 | 27397 ft | 507 kts | 121° |
| 2026-05-09 03:28 | 36.90358 | -25.04610 | 27734 ft | 511 kts | 121° |
| 2026-05-09 03:28 | 36.88562 | -25.00764 | 28091 ft | 514 kts | 121° |
| 2026-05-09 03:28 | 36.86738 | -24.96898 | 28360 ft | 518 kts | 122° |
| 2026-05-09 03:29 | 36.84886 | -24.93024 | 28661 ft | 521 kts | 122° |
| 2026-05-09 03:29 | 36.83018 | -24.89153 | 29125 ft | 520 kts | 123° |
| 2026-05-09 03:29 | 36.81142 | -24.85291 | 29485 ft | 522 kts | 123° |
| 2026-05-09 03:29 | 36.79251 | -24.81415 | 29773 ft | 525 kts | 123° |
| 2026-05-09 03:30 | 36.77343 | -24.77511 | 30056 ft | 528 kts | 123° |
| 2026-05-09 03:30 | 36.75430 | -24.73598 | 30311 ft | 530 kts | 123° |
| 2026-05-09 03:30 | 36.73510 | -24.69672 | 30617 ft | 531 kts | 123° |
| 2026-05-09 03:30 | 36.71581 | -24.65729 | 30849 ft | 534 kts | 123° |
| 2026-05-09 03:31 | 36.69648 | -24.61782 | 31122 ft | 534 kts | 123° |
| 2026-05-09 03:31 | 36.67720 | -24.57848 | 31592 ft | 530 kts | 123° |
| 2026-05-09 03:31 | 36.65807 | -24.53947 | 32034 ft | 526 kts | 124° |
| 2026-05-09 03:31 | 36.63902 | -24.50069 | 32441 ft | 524 kts | 124° |
| 2026-05-09 03:32 | 36.62000 | -24.46202 | 32753 ft | 523 kts | 124° |
| 2026-05-09 03:32 | 36.60099 | -24.42344 | 33023 ft | 523 kts | 124° |
| 2026-05-09 03:32 | 36.58194 | -24.38482 | 33294 ft | 524 kts | 124° |
| 2026-05-09 03:32 | 36.56283 | -24.34612 | 33440 ft | 526 kts | 124° |
| 2026-05-09 03:33 | 36.54365 | -24.30733 | 33598 ft | 527 kts | 124° |
| 2026-05-09 03:33 | 36.52451 | -24.26863 | 34034 ft | 522 kts | 124° |
| 2026-05-09 03:33 | 36.50555 | -24.23032 | 34366 ft | 519 kts | 124° |
| 2026-05-09 03:33 | 36.48661 | -24.19213 | 34595 ft | 519 kts | 124° |
| 2026-05-09 03:34 | 36.46767 | -24.15398 | 34770 ft | 520 kts | 124° |
| 2026-05-09 03:34 | 36.44866 | -24.11574 | 34926 ft | 521 kts | 124° |
| 2026-05-09 03:34 | 36.42960 | -24.07742 | 35121 ft | 521 kts | 124° |
| 2026-05-09 03:34 | 36.41053 | -24.03914 | 35317 ft | 522 kts | 124° |
| 2026-05-09 03:35 | 36.39155 | -24.00067 | 35450 ft | 524 kts | 123° |
| 2026-05-09 03:35 | 36.37311 | -23.96172 | 35682 ft | 522 kts | 122° |
| 2026-05-09 03:35 | 36.35507 | -23.92269 | 35962 ft | 520 kts | 122° |
| 2026-05-09 03:35 | 36.33722 | -23.88371 | 36184 ft | 520 kts | 122° |
| 2026-05-09 03:36 | 36.31935 | -23.84473 | 36338 ft | 521 kts | 122° |
| 2026-05-09 03:36 | 36.30138 | -23.80571 | 36492 ft | 521 kts | 122° |
| 2026-05-09 03:36 | 36.28331 | -23.76671 | 36682 ft | 521 kts | 122° |
| 2026-05-09 03:36 | 36.26520 | -23.72781 | 36895 ft | 521 kts | 122° |
| 2026-05-09 03:37 | 36.22875 | -23.64988 | 36995 ft | 525 kts | 122° |
| 2026-05-09 03:37 | 36.19216 | -23.57189 | 36992 ft | 522 kts | 122° |
| 2026-05-09 03:38 | 36.15578 | -23.49449 | 36993 ft | 519 kts | 122° |
| 2026-05-09 03:38 | 36.11949 | -23.41746 | 37019 ft | 517 kts | 122° |
| 2026-05-09 03:39 | 36.08352 | -23.34125 | 36998 ft | 516 kts | 123° |
| 2026-05-09 03:39 | 36.04701 | -23.26409 | 36995 ft | 516 kts | 123° |
| 2026-05-09 03:40 | 36.01092 | -23.18800 | 36991 ft | 517 kts | 123° |
| 2026-05-09 03:40 | 35.97445 | -23.11128 | 36992 ft | 519 kts | 123° |
| 2026-05-09 03:41 | 35.93776 | -23.03426 | 36985 ft | 521 kts | 123° |
| 2026-05-09 03:41 | 35.90091 | -22.95708 | 36947 ft | 523 kts | 123° |
| 2026-05-09 03:42 | 35.86392 | -22.87977 | 36976 ft | 524 kts | 123° |
| 2026-05-09 03:42 | 35.82678 | -22.80233 | 36981 ft | 525 kts | 123° |
| 2026-05-09 03:43 | 35.78953 | -22.72486 | 36971 ft | 527 kts | 123° |
| 2026-05-09 03:43 | 35.75218 | -22.64731 | 36972 ft | 527 kts | 123° |
| 2026-05-09 03:44 | 35.71478 | -22.56986 | 36970 ft | 526 kts | 123° |
| 2026-05-09 03:44 | 35.67740 | -22.49262 | 36969 ft | 525 kts | 123° |
| 2026-05-09 03:45 | 35.63999 | -22.41551 | 36973 ft | 525 kts | 123° |
| 2026-05-09 03:45 | 35.60259 | -22.33858 | 36969 ft | 524 kts | 123° |
| 2026-05-09 03:46 | 35.56521 | -22.26186 | 36955 ft | 523 kts | 124° |
| 2026-05-09 03:46 | 35.52813 | -22.18593 | 36954 ft | 522 kts | 124° |
| 2026-05-09 03:47 | 35.49078 | -22.10963 | 36962 ft | 521 kts | 124° |
| 2026-05-09 03:47 | 35.45340 | -22.03343 | 36954 ft | 521 kts | 124° |
| 2026-05-09 03:48 | 35.41599 | -21.95733 | 36957 ft | 521 kts | 124° |
| 2026-05-09 03:48 | 35.37855 | -21.88134 | 36957 ft | 520 kts | 124° |
| 2026-05-09 03:49 | 35.34106 | -21.80542 | 36985 ft | 521 kts | 124° |
| 2026-05-09 03:49 | 35.30339 | -21.72931 | 36963 ft | 523 kts | 124° |
| 2026-05-09 03:50 | 35.26565 | -21.65320 | 36955 ft | 524 kts | 124° |
| 2026-05-09 03:50 | 35.22779 | -21.57704 | 36935 ft | 524 kts | 124° |
| 2026-05-09 03:51 | 35.18989 | -21.50093 | 36945 ft | 524 kts | 124° |
| 2026-05-09 03:51 | 35.15188 | -21.42480 | 36960 ft | 525 kts | 124° |
| 2026-05-09 03:52 | 35.11376 | -21.34861 | 36949 ft | 526 kts | 124° |
| 2026-05-09 03:52 | 35.07558 | -21.27245 | 36947 ft | 526 kts | 124° |
| 2026-05-09 03:53 | 35.03737 | -21.19641 | 36943 ft | 525 kts | 125° |
| 2026-05-09 03:53 | 35.00532 | -21.13276 | 36966 ft | 525 kts | 125° |
| 2026-05-09 03:54 | 34.96699 | -21.05680 | 36947 ft | 526 kts | 125° |
| 2026-05-09 03:54 | 34.92862 | -20.98089 | 36939 ft | 526 kts | 125° |
| 2026-05-09 03:55 | 34.89047 | -20.90561 | 36902 ft | 526 kts | 125° |
| 2026-05-09 03:55 | 34.85207 | -20.82998 | 36931 ft | 525 kts | 125° |
| 2026-05-09 03:56 | 34.81364 | -20.75445 | 36951 ft | 525 kts | 125° |
| 2026-05-09 03:56 | 34.77515 | -20.67899 | 36938 ft | 525 kts | 125° |
| 2026-05-09 03:57 | 34.73661 | -20.60357 | 36937 ft | 525 kts | 126° |
| 2026-05-09 03:57 | 34.69805 | -20.52829 | 36927 ft | 524 kts | 126° |
| 2026-05-09 03:58 | 34.65950 | -20.45318 | 36946 ft | 524 kts | 126° |
| 2026-05-09 03:58 | 34.62083 | -20.37800 | 36931 ft | 525 kts | 126° |
| 2026-05-09 03:59 | 34.58211 | -20.30287 | 36931 ft | 525 kts | 126° |
| 2026-05-09 03:59 | 34.54335 | -20.22784 | 36940 ft | 525 kts | 126° |
| 2026-05-09 04:00 | 34.50452 | -20.15282 | 36923 ft | 524 kts | 126° |
| 2026-05-09 04:00 | 34.46570 | -20.07798 | 36938 ft | 525 kts | 126° |
| 2026-05-09 04:01 | 34.42677 | -20.00310 | 36929 ft | 525 kts | 126° |
| 2026-05-09 04:01 | 34.38777 | -19.92822 | 36927 ft | 526 kts | 126° |
| 2026-05-09 04:02 | 34.34869 | -19.85336 | 36925 ft | 526 kts | 126° |
| 2026-05-09 04:02 | 34.30957 | -19.77858 | 36936 ft | 526 kts | 127° |
| 2026-05-09 04:03 | 34.27040 | -19.70384 | 36918 ft | 526 kts | 127° |
| 2026-05-09 04:03 | 34.23116 | -19.62914 | 36922 ft | 526 kts | 127° |
| 2026-05-09 04:04 | 34.19188 | -19.55451 | 36914 ft | 526 kts | 127° |
| 2026-05-09 04:04 | 34.15259 | -19.48003 | 36892 ft | 526 kts | 127° |
| 2026-05-09 04:05 | 34.11332 | -19.40572 | 36930 ft | 525 kts | 127° |
| 2026-05-09 04:05 | 34.07425 | -19.33197 | 36915 ft | 525 kts | 127° |
| 2026-05-09 04:06 | 34.03487 | -19.25777 | 36917 ft | 525 kts | 127° |
| 2026-05-09 04:06 | 33.99546 | -19.18367 | 36922 ft | 525 kts | 127° |
| 2026-05-09 04:07 | 33.95603 | -19.10968 | 36912 ft | 524 kts | 127° |
| 2026-05-09 04:07 | 33.91659 | -19.03583 | 36909 ft | 524 kts | 127° |
| 2026-05-09 04:08 | 33.87710 | -18.96204 | 36914 ft | 524 kts | 127° |
| 2026-05-09 04:08 | 33.83759 | -18.88835 | 36915 ft | 524 kts | 127° |
| 2026-05-09 04:09 | 33.79799 | -18.81466 | 36912 ft | 524 kts | 127° |
| 2026-05-09 04:09 | 33.75841 | -18.74114 | 36904 ft | 523 kts | 128° |
| 2026-05-09 04:10 | 33.71880 | -18.66772 | 36907 ft | 524 kts | 128° |
| 2026-05-09 04:10 | 33.67913 | -18.59434 | 36920 ft | 524 kts | 128° |
| 2026-05-09 04:11 | 33.63940 | -18.52099 | 36915 ft | 524 kts | 128° |
| 2026-05-09 04:11 | 33.59956 | -18.44760 | 36923 ft | 525 kts | 128° |
| 2026-05-09 04:12 | 33.55970 | -18.37430 | 36916 ft | 524 kts | 128° |
| 2026-05-09 04:12 | 33.51980 | -18.30106 | 36920 ft | 525 kts | 128° |
| 2026-05-09 04:13 | 33.47987 | -18.22794 | 36923 ft | 525 kts | 128° |
| 2026-05-09 04:13 | 33.43984 | -18.15478 | 36922 ft | 525 kts | 128° |
| 2026-05-09 04:14 | 33.39979 | -18.08171 | 36951 ft | 525 kts | 128° |
| 2026-05-09 04:14 | 33.35968 | -18.00870 | 36919 ft | 524 kts | 128° |
| 2026-05-09 04:15 | 33.31957 | -17.93582 | 36915 ft | 524 kts | 128° |
| 2026-05-09 04:15 | 33.27943 | -17.86303 | 36922 ft | 524 kts | 128° |
| 2026-05-09 04:16 | 33.23925 | -17.79032 | 36919 ft | 525 kts | 128° |
| 2026-05-09 04:16 | 33.19926 | -17.71809 | 36939 ft | 525 kts | 129° |
| 2026-05-09 04:17 | 33.15890 | -17.64532 | 36923 ft | 526 kts | 129° |
| 2026-05-09 04:17 | 33.11846 | -17.57255 | 36919 ft | 527 kts | 129° |
| 2026-05-09 04:18 | 33.07791 | -17.49971 | 36931 ft | 528 kts | 129° |
| 2026-05-09 04:18 | 33.03181 | -17.43326 | 36938 ft | 513 kts | 147° |
| 2026-05-09 04:19 | 32.97401 | -17.38674 | 36890 ft | 491 kts | 165° |
| 2026-05-09 04:19 | 32.91179 | -17.35388 | 36933 ft | 489 kts | 166° |
| 2026-05-09 04:20 | 32.84944 | -17.32117 | 36936 ft | 491 kts | 166° |
| 2026-05-09 04:20 | 32.78707 | -17.28790 | 36939 ft | 492 kts | 165° |
| 2026-05-09 04:21 | 32.72468 | -17.25433 | 36895 ft | 492 kts | 165° |
| 2026-05-09 04:22 | 32.63120 | -17.20405 | 36939 ft | 492 kts | 165° |
| 2026-05-09 04:22 | 32.56886 | -17.17063 | 36941 ft | 492 kts | 165° |
| 2026-05-09 04:23 | 32.50649 | -17.13725 | 36946 ft | 492 kts | 165° |
| 2026-05-09 04:23 | 32.44411 | -17.10392 | 36944 ft | 491 kts | 165° |
| 2026-05-09 04:24 | 32.38175 | -17.07065 | 36945 ft | 492 kts | 165° |
| 2026-05-09 04:24 | 32.31938 | -17.03743 | 36950 ft | 492 kts | 165° |
| 2026-05-09 04:25 | 32.25693 | -17.00422 | 36942 ft | 492 kts | 165° |
| 2026-05-09 04:25 | 32.19448 | -16.97105 | 36955 ft | 492 kts | 165° |
| 2026-05-09 04:26 | 32.13194 | -16.93788 | 36942 ft | 493 kts | 165° |
| 2026-05-09 04:26 | 32.06946 | -16.90480 | 36951 ft | 493 kts | 166° |
| 2026-05-09 04:27 | 32.00732 | -16.87195 | 36920 ft | 492 kts | 166° |
| 2026-05-09 04:27 | 31.94487 | -16.83897 | 36951 ft | 492 kts | 166° |
| 2026-05-09 04:28 | 31.88241 | -16.80605 | 36960 ft | 492 kts | 166° |
| 2026-05-09 04:28 | 31.81995 | -16.77318 | 36959 ft | 492 kts | 166° |
| 2026-05-09 04:29 | 31.75745 | -16.74033 | 36913 ft | 492 kts | 166° |
| 2026-05-09 04:29 | 31.69498 | -16.70754 | 36959 ft | 492 kts | 166° |
| 2026-05-09 04:30 | 31.63240 | -16.67476 | 36971 ft | 493 kts | 166° |
| 2026-05-09 04:30 | 31.56962 | -16.64192 | 36972 ft | 495 kts | 166° |
| 2026-05-09 04:31 | 31.50668 | -16.60902 | 36928 ft | 496 kts | 166° |
| 2026-05-09 04:31 | 31.44368 | -16.57613 | 36964 ft | 496 kts | 166° |
| 2026-05-09 04:32 | 31.38092 | -16.54154 | 36935 ft | 509 kts | 155° |
| 2026-05-09 04:32 | 31.35537 | -16.51177 | 36910 ft | 540 kts | 117° |
| 2026-05-09 04:32 | 31.35361 | -16.46949 | 36010 ft | 526 kts | 46° |
| 2026-05-09 04:32 | 31.38068 | -16.45526 | 32749 ft | 409 kts | 318° |
| 2026-05-09 04:33 | 31.38606 | -16.48349 | 28468 ft | 444 kts | 233° |
| 2026-05-09 04:33 | 31.35454 | -16.48897 | 25745 ft | 552 kts | 147° |
| 2026-05-09 04:33 | 31.34696 | -16.45009 | 24743 ft | 511 kts | 35° |
| 2026-05-09 04:33 | 31.36853 | -16.45512 | 22968 ft | 362 kts | 259° |
| 2026-05-09 04:34 | 31.34506 | -16.46377 | 20121 ft | 498 kts | 145° |
| 2026-05-09 04:34 | 31.34106 | -16.42753 | 18860 ft | 477 kts | 32° |
| 2026-05-09 04:34 | 31.35985 | -16.43506 | 18111 ft | 352 kts | 243° |
| 2026-05-09 04:34 | 31.33790 | -16.42977 | 15564 ft | 480 kts | 103° |
| 2026-05-09 04:35 | 31.35363 | -16.40454 | 14405 ft | 396 kts | 336° |
| 2026-05-09 04:35 | 31.35212 | -16.42182 | 13822 ft | 375 kts | 161° |
| 2026-05-09 04:35 | 31.35135 | -16.39559 | 11073 ft | 422 kts | 20° |
| 2026-05-09 04:35 | 31.37103 | -16.40721 | 10711 ft | 356 kts | 266° |
| 2026-05-09 04:36 | 31.35536 | -16.40784 | 9855 ft | 371 kts | 73° |
| 2026-05-09 04:36 | 31.37385 | -16.40394 | 7753 ft | 356 kts | 293° |
| 2026-05-09 04:36 | 31.36108 | -16.41890 | 7656 ft | 378 kts | 126° |
| 2026-05-09 04:36 | 31.37119 | -16.40834 | 5811 ft | 320 kts | 299° |
| 2026-05-09 04:37 | 31.36196 | -16.43014 | 5328 ft | 358 kts | 217° |
| 2026-05-09 04:37 | 31.33939 | -16.44311 | 5584 ft | 366 kts | 203° |
| 2026-05-09 04:37 | 31.31592 | -16.45269 | 6555 ft | 315 kts | 204° |
| 2026-05-09 04:37 | 31.29550 | -16.46094 | 8113 ft | 316 kts | 205° |
| 2026-05-09 04:38 | 31.27491 | -16.46902 | 9220 ft | 305 kts | 204° |
| 2026-05-09 04:38 | 31.25565 | -16.47875 | 10076 ft | 297 kts | 217° |
| 2026-05-09 04:38 | 31.23940 | -16.49255 | 11074 ft | 281 kts | 229° |
| 2026-05-09 04:38 | 31.22622 | -16.50874 | 12070 ft | 270 kts | 238° |
| 2026-05-09 04:39 | 31.21557 | -16.52662 | 12885 ft | 268 kts | 245° |
| 2026-05-09 04:39 | 31.20679 | -16.54608 | 13537 ft | 274 kts | 250° |
| 2026-05-09 04:39 | 31.19945 | -16.56687 | 14162 ft | 279 kts | 254° |
| 2026-05-09 04:39 | 31.19312 | -16.58827 | 14957 ft | 278 kts | 256° |
| 2026-05-09 04:40 | 31.18734 | -16.60946 | 15883 ft | 270 kts | 257° |
| 2026-05-09 04:40 | 31.18359 | -16.62354 | 16441 ft | 268 kts | 257° |
| 2026-05-09 04:40 | 31.17807 | -16.64448 | 17031 ft | 274 kts | 257° |
| 2026-05-09 04:40 | 31.17231 | -16.66613 | 17393 ft | 286 kts | 257° |
| 2026-05-09 04:41 | 31.16622 | -16.68833 | 17806 ft | 295 kts | 256° |
| 2026-05-09 04:41 | 31.15960 | -16.71106 | 18458 ft | 295 kts | 255° |
| 2026-05-09 04:41 | 31.15254 | -16.73337 | 19216 ft | 291 kts | 254° |
| 2026-05-09 04:41 | 31.14497 | -16.75513 | 19917 ft | 289 kts | 252° |
| 2026-05-09 04:42 | 31.13607 | -16.77649 | 20377 ft | 302 kts | 242° |
| 2026-05-09 04:42 | 31.11959 | -16.79371 | 20466 ft | 341 kts | 217° |
| 2026-05-09 04:42 | 31.09630 | -16.80352 | 20593 ft | 372 kts | 201° |
| 2026-05-09 04:42 | 31.06956 | -16.80642 | 20690 ft | 403 kts | 185° |
| 2026-05-09 04:43 | 31.04101 | -16.80165 | 20882 ft | 424 kts | 176° |
| 2026-05-09 04:43 | 31.01200 | -16.79352 | 21259 ft | 432 kts | 173° |
| 2026-05-09 04:43 | 30.98296 | -16.78415 | 21751 ft | 434 kts | 172° |
| 2026-05-09 04:43 | 30.95387 | -16.77451 | 22215 ft | 435 kts | 171° |
| 2026-05-09 04:44 | 30.92433 | -16.76487 | 22752 ft | 435 kts | 172° |
| 2026-05-09 04:44 | 30.89502 | -16.75559 | 23184 ft | 438 kts | 172° |
| 2026-05-09 04:44 | 30.86584 | -16.74661 | 23564 ft | 441 kts | 173° |
| 2026-05-09 04:44 | 30.83600 | -16.73762 | 23910 ft | 444 kts | 173° |
| 2026-05-09 04:45 | 30.80605 | -16.72868 | 23980 ft | 444 kts | 173° |
| 2026-05-09 04:45 | 30.77616 | -16.71980 | 23990 ft | 443 kts | 173° |
| 2026-05-09 04:45 | 30.74626 | -16.71094 | 23999 ft | 444 kts | 173° |
| 2026-05-09 04:45 | 30.71630 | -16.70208 | 24002 ft | 444 kts | 173° |
| 2026-05-09 04:46 | 30.68633 | -16.69322 | 23987 ft | 445 kts | 173° |
| 2026-05-09 04:46 | 30.65635 | -16.68423 | 23995 ft | 445 kts | 173° |
| 2026-05-09 04:46 | 30.62641 | -16.67503 | 24002 ft | 445 kts | 173° |
| 2026-05-09 04:46 | 30.59644 | -16.66585 | 24005 ft | 446 kts | 173° |
| 2026-05-09 04:47 | 30.56641 | -16.65677 | 24003 ft | 445 kts | 174° |
| 2026-05-09 04:47 | 30.53629 | -16.64922 | 24004 ft | 442 kts | 177° |
| 2026-05-09 04:47 | 30.50609 | -16.64314 | 24005 ft | 438 kts | 179° |
| 2026-05-09 04:47 | 30.47651 | -16.63770 | 23991 ft | 424 kts | 179° |
| 2026-05-09 04:48 | 30.44742 | -16.63249 | 23664 ft | 422 kts | 179° |
| 2026-05-09 04:48 | 30.41864 | -16.62728 | 23451 ft | 415 kts | 179° |
| 2026-05-09 04:48 | 30.39005 | -16.62203 | 22700 ft | 418 kts | 179° |
| 2026-05-09 04:48 | 30.36119 | -16.61666 | 21876 ft | 422 kts | 178° |
| 2026-05-09 04:49 | 30.33214 | -16.61115 | 21168 ft | 423 kts | 178° |
| 2026-05-09 04:49 | 30.30325 | -16.60558 | 20623 ft | 419 kts | 178° |
| 2026-05-09 04:49 | 30.27463 | -16.60001 | 20127 ft | 415 kts | 178° |
| 2026-05-09 04:49 | 30.24634 | -16.59449 | 19610 ft | 411 kts | 178° |
| 2026-05-09 04:50 | 30.21822 | -16.58902 | 19091 ft | 408 kts | 178° |
| 2026-05-09 04:50 | 30.19031 | -16.58361 | 18578 ft | 405 kts | 178° |
| 2026-05-09 04:50 | 30.16283 | -16.57826 | 18381 ft | 393 kts | 178° |
| 2026-05-09 04:50 | 30.13638 | -16.57306 | 18293 ft | 379 kts | 178° |
| 2026-05-09 04:51 | 30.11086 | -16.56806 | 18210 ft | 365 kts | 179° |
| 2026-05-09 04:51 | 30.08620 | -16.56325 | 18126 ft | 353 kts | 179° |
| 2026-05-09 04:51 | 30.06237 | -16.55863 | 18102 ft | 342 kts | 179° |
| 2026-05-09 04:51 | 30.03909 | -16.55415 | 18114 ft | 343 kts | 179° |
| 2026-05-09 04:52 | 30.01472 | -16.54965 | 18138 ft | 366 kts | 179° |
| 2026-05-09 04:52 | 29.98887 | -16.54490 | 18136 ft | 387 kts | 179° |
| 2026-05-09 04:52 | 29.96181 | -16.53982 | 18192 ft | 398 kts | 178° |
| 2026-05-09 04:52 | 29.93413 | -16.53453 | 18155 ft | 409 kts | 178° |
| 2026-05-09 04:53 | 29.90573 | -16.52906 | 18052 ft | 417 kts | 177° |
| 2026-05-09 04:53 | 29.87716 | -16.52349 | 18008 ft | 415 kts | 177° |
| 2026-05-09 04:53 | 29.84873 | -16.51793 | 18015 ft | 415 kts | 177° |
| 2026-05-09 04:53 | 29.82030 | -16.51239 | 18014 ft | 415 kts | 177° |
| 2026-05-09 04:54 | 29.79183 | -16.50687 | 18010 ft | 414 kts | 177° |
| 2026-05-09 04:54 | 29.76340 | -16.50139 | 18011 ft | 414 kts | 177° |
| 2026-05-09 04:54 | 29.73495 | -16.49592 | 18012 ft | 414 kts | 177° |
| 2026-05-09 04:54 | 29.70654 | -16.49047 | 18018 ft | 414 kts | 177° |
| 2026-05-09 04:55 | 29.67849 | -16.48509 | 18025 ft | 414 kts | 177° |